Terminal Aerodrome Forecast
Issued by NWS Louisville, KY

Home | Current Version | Previous Version | Text Only | Print | Product List | Glossary On
Versions: 1 2 3 4 5 6 7 8 9 10 11 12 13 14 15 16 17 18
629
FTUS43 KLMK 242320
TAFSDF
TAF
KSDF 242320Z 2500/2606 35007KT P6SM BKN060
     FM250400 02006KT P6SM FEW200
     FM251300 06008KT P6SM SCT050=

USA.gov is the U.S. government's official web portal to all federal, state and local government web resources and services.